Benedict, Minnesota
Current Conditions -  °F | °C
As of 1:15 PM on Sunday 21 Dec 2014 (Local Time) from KY49 Reporting Station
Haze Haze  
Wind Chill: 23°   Ceiling: 400
Heat Index: 30°   Visibility: 2mi
Dew Point: 30°   Wind: 7mph
Humidity: 98%   Direction: 150°SSE
Pressure: 29.68"   Gusts: NA
Location:  47.16°N, 94.69°W
Report Text: KY49 211915Z AUTO 15006KT 2SM BR OVC004 M01/M01 A2968 RMK AO2 T10101013
Loading
Personal Weather Stations






























Interactive Weather Map New forecast layout! Learn more

10-Day Weather Forecast

Advertisements
Track Severe Weather on mobile